createdAt,value
2023-04-04T00:00:13.465Z,28.40
2023-04-04T00:03:01.845Z,29.20
2023-04-04T00:05:51.656Z,28.43
2023-04-04T00:08:41.387Z,28.57
2023-04-04T00:11:29.683Z,28.80
2023-04-04T00:14:18.230Z,29.13
2023-04-04T00:17:06.582Z,28.80
2023-04-04T00:19:54.924Z,28.73
2023-04-04T00:22:43.352Z,28.67
2023-04-04T00:25:32.988Z,28.20
2023-04-04T00:28:21.978Z,28.67
2023-04-04T00:31:10.557Z,28.73
2023-04-04T00:33:58.992Z,28.50
2023-04-04T00:36:47.742Z,28.10
2023-04-04T00:39:36.013Z,28.60
2023-04-04T00:42:25.900Z,30.13
2023-04-04T00:45:14.141Z,31.07
2023-04-04T00:48:03.298Z,29.77
2023-04-04T00:50:51.637Z,28.47
2023-04-04T00:53:40.083Z,28.53
2023-04-04T00:56:29.003Z,28.87
2023-04-04T00:59:18.657Z,29.60
2023-04-04T01:02:07.091Z,28.97
2023-04-04T01:04:55.391Z,29.10
2023-04-04T01:07:43.850Z,29.33
2023-04-04T01:10:34.181Z,28.90
2023-04-04T01:13:22.791Z,28.70
2023-04-04T01:16:14.064Z,29.33
2023-04-04T01:19:02.409Z,28.77
2023-04-04T01:21:52.163Z,29.03
2023-04-04T01:24:43.442Z,29.07
2023-04-04T01:27:33.536Z,28.67
2023-04-04T01:30:30.086Z,28.80
2023-04-04T01:33:23.997Z,29.37
2023-04-04T01:36:18.903Z,28.93
2023-04-04T01:39:11.735Z,28.53
2023-04-04T01:42:00.970Z,29.10
2023-04-04T01:45:15.552Z,29.10
2023-04-04T01:48:04.383Z,29.40
2023-04-04T01:50:52.851Z,29.23
2023-04-04T01:53:41.732Z,29.03
2023-04-04T01:56:30.110Z,28.60
2023-04-04T01:59:18.624Z,28.60
2023-04-04T02:02:08.451Z,28.80
2023-04-04T02:04:56.764Z,29.10
2023-04-04T02:07:48.519Z,29.83
2023-04-04T02:10:45.106Z,29.83
2023-04-04T02:13:33.520Z,29.53
2023-04-04T02:16:22.527Z,29.70
2023-04-04T02:19:14.001Z,35.10
2023-04-04T02:22:02.725Z,28.90
2023-04-04T02:24:51.322Z,29.30
2023-04-04T02:27:39.632Z,28.37
2023-04-04T02:30:28.132Z,29.00
2023-04-04T02:33:17.181Z,29.13
2023-04-04T02:36:07.786Z,29.57
2023-04-04T02:38:56.276Z,29.90
2023-04-04T02:41:47.665Z,29.57
2023-04-04T02:44:37.114Z,28.60
2023-04-04T02:47:26.746Z,28.97
2023-04-04T02:50:16.284Z,29.60
2023-04-04T02:53:07.998Z,28.47
2023-04-04T02:55:57.859Z,31.37
2023-04-04T02:58:46.772Z,31.00
2023-04-04T03:01:35.279Z,32.17
2023-04-04T03:04:25.782Z,28.83
2023-04-04T03:07:14.378Z,28.30
2023-04-04T03:10:04.220Z,28.67
2023-04-04T03:12:52.639Z,28.77
2023-04-04T03:15:43.919Z,29.33
2023-04-04T03:18:36.948Z,29.27
2023-04-04T03:21:25.432Z,28.90
2023-04-04T03:24:13.946Z,29.07
2023-04-04T03:27:03.713Z,28.90
2023-04-04T03:29:52.960Z,30.50
2023-04-04T03:32:41.372Z,28.80
2023-04-04T03:35:29.743Z,28.13
2023-04-04T03:38:19.120Z,30.90
2023-04-04T03:41:08.490Z,28.70
2023-04-04T03:43:58.212Z,29.80
2023-04-04T03:46:46.578Z,30.67
2023-04-04T03:49:36.280Z,28.87
2023-04-04T03:52:25.055Z,28.60
2023-04-04T03:55:14.291Z,28.80
2023-04-04T03:58:02.732Z,28.73
2023-04-04T04:00:52.453Z,29.40
2023-04-04T04:03:40.863Z,28.43
2023-04-04T04:06:29.306Z,28.60
2023-04-04T04:09:17.622Z,28.50
2023-04-04T04:12:06.169Z,27.50
2023-04-04T04:14:54.479Z,28.37
2023-04-04T04:17:44.487Z,28.27
2023-04-04T04:20:33.870Z,28.30
2023-04-04T04:23:22.738Z,27.97
2023-04-04T04:26:13.062Z,27.90
2023-04-04T04:29:02.470Z,28.70
2023-04-04T04:31:53.929Z,30.67
2023-04-04T04:34:46.750Z,29.60
2023-04-04T04:37:35.995Z,29.17
2023-04-04T04:40:25.767Z,28.83
2023-04-04T04:43:26.419Z,28.20
2023-04-04T04:46:15.013Z,28.33
2023-04-04T04:49:03.668Z,27.67
2023-04-04T04:51:54.239Z,28.67
2023-04-04T04:54:43.712Z,29.07
2023-04-04T04:57:34.133Z,27.13
2023-04-04T05:00:25.484Z,27.30
2023-04-04T05:03:13.911Z,27.77
2023-04-04T05:06:08.785Z,27.67
2023-04-04T05:09:00.128Z,27.50
2023-04-04T05:11:55.385Z,29.73
2023-04-04T05:14:47.918Z,26.80
2023-04-04T05:17:37.569Z,28.20
2023-04-04T05:20:28.817Z,27.57
2023-04-04T05:23:20.744Z,35.17
2023-04-04T05:26:10.450Z,28.07
2023-04-04T05:29:01.449Z,27.80
2023-04-04T05:31:51.328Z,28.07
2023-04-04T05:34:42.890Z,27.87
2023-04-04T05:37:40.069Z,27.60
2023-04-04T05:40:31.998Z,28.63
2023-04-04T05:43:29.192Z,27.67
2023-04-04T05:46:26.120Z,27.07
2023-04-04T05:49:15.836Z,27.77
2023-04-04T05:52:13.785Z,29.27
2023-04-04T05:55:02.703Z,27.70
2023-04-04T05:57:53.776Z,27.60
2023-04-04T06:00:53.189Z,27.37
2023-04-04T06:03:41.688Z,28.00
2023-04-04T06:06:35.389Z,28.20
2023-04-04T06:09:24.875Z,27.90
2023-04-04T06:12:13.321Z,28.27
2023-04-04T06:15:02.558Z,30.23
2023-04-04T06:17:52.560Z,28.07
2023-04-04T06:20:41.650Z,27.87
2023-04-04T06:23:32.406Z,28.40
2023-04-04T06:26:21.975Z,27.57
2023-04-04T06:29:11.567Z,27.10
2023-04-04T06:32:01.262Z,27.10
2023-04-04T06:35:10.354Z,28.07
2023-04-04T06:38:05.565Z,27.57
2023-04-04T06:40:54.672Z,28.27
2023-04-04T06:43:43.182Z,29.17
2023-04-04T06:46:33.263Z,30.70
2023-04-04T06:49:22.125Z,28.37
2023-04-04T06:52:11.896Z,28.20
2023-04-04T06:55:00.316Z,28.73
2023-04-04T06:57:48.761Z,27.40
2023-04-04T07:00:37.448Z,30.47
2023-04-04T07:03:26.575Z,28.60
2023-04-04T07:06:14.904Z,27.37
2023-04-04T07:09:05.977Z,28.33
2023-04-04T07:11:57.272Z,32.60
2023-04-04T07:14:45.601Z,28.77
2023-04-04T07:17:33.945Z,27.63
2023-04-04T07:20:22.324Z,28.30
2023-04-04T07:23:11.006Z,28.03
2023-04-04T07:26:00.703Z,30.97
2023-04-04T07:28:49.025Z,28.20
2023-04-04T07:31:37.371Z,28.10
2023-04-04T07:34:26.886Z,28.57
2023-04-04T07:37:15.177Z,29.17
2023-04-04T07:40:03.613Z,30.60
2023-04-04T07:42:54.613Z,29.90
2023-04-04T07:45:43.003Z,28.30
2023-04-04T07:48:31.644Z,28.17
2023-04-04T07:51:28.091Z,28.77
2023-04-04T07:54:16.534Z,28.03
2023-04-04T07:57:06.047Z,29.03
2023-04-04T07:59:55.746Z,29.13
2023-04-04T08:02:44.756Z,28.80
2023-04-04T08:05:33.424Z,29.50
2023-04-04T08:08:21.859Z,28.40
2023-04-04T08:11:10.133Z,27.67
2023-04-04T08:13:58.490Z,27.23
2023-04-04T08:16:48.183Z,27.63
2023-04-04T08:19:36.540Z,27.50
2023-04-04T08:22:24.898Z,27.00
2023-04-04T08:25:13.584Z,27.27
2023-04-04T08:28:04.295Z,27.43
2023-04-04T08:30:53.885Z,28.00
2023-04-04T08:33:47.652Z,27.53
2023-04-04T08:36:36.412Z,26.93
2023-04-04T08:39:24.781Z,26.63
2023-04-04T08:42:15.110Z,27.50
2023-04-04T08:45:05.318Z,29.73
2023-04-04T08:47:54.328Z,26.53
2023-04-04T08:50:44.701Z,27.07
2023-04-04T08:53:34.247Z,26.90
2023-04-04T08:56:22.691Z,27.60
2023-04-04T08:59:11.522Z,27.33
2023-04-04T09:02:06.393Z,26.23
2023-04-04T09:05:05.671Z,28.70
2023-04-04T09:07:58.215Z,25.73
2023-04-04T09:10:47.153Z,25.23
2023-04-04T09:13:37.561Z,26.57
2023-04-04T09:16:28.434Z,27.17
2023-04-04T09:19:16.936Z,26.50
2023-04-04T09:22:08.925Z,25.30
2023-04-04T09:24:58.900Z,27.37
2023-04-04T09:27:49.398Z,26.50
2023-04-04T09:30:38.830Z,27.17
2023-04-04T09:33:27.391Z,24.80
2023-04-04T09:36:18.267Z,24.83
2023-04-04T09:39:07.254Z,24.70
2023-04-04T09:41:57.242Z,27.03
2023-04-04T09:44:46.086Z,27.97
2023-04-04T09:47:34.493Z,26.37
2023-04-04T09:50:24.616Z,26.30
2023-04-04T09:53:17.855Z,22.83
2023-04-04T09:56:07.588Z,24.40
2023-04-04T09:59:03.839Z,23.63
2023-04-04T10:01:55.909Z,22.50
2023-04-04T10:04:47.168Z,21.60
2023-04-04T10:07:42.379Z,21.00
2023-04-04T10:10:32.948Z,22.23
2023-04-04T10:13:25.907Z,21.40
2023-04-04T10:16:15.627Z,24.10
2023-04-04T10:19:05.312Z,23.37
2023-04-04T10:21:53.604Z,21.50
2023-04-04T10:24:42.062Z,20.70
2023-04-04T10:27:30.479Z,20.00
2023-04-04T10:30:18.802Z,18.63
2023-04-04T10:33:12.857Z,20.93
2023-04-04T10:36:03.420Z,21.03
2023-04-04T10:38:59.770Z,20.30
2023-04-04T10:41:51.729Z,20.13
2023-04-04T10:44:41.621Z,19.50
2023-04-04T10:47:30.618Z,18.93
2023-04-04T10:50:21.352Z,19.30
2023-04-04T10:53:10.574Z,19.13
2023-04-04T10:55:59.264Z,18.30
2023-04-04T10:58:47.610Z,18.53
2023-04-04T11:01:48.623Z,24.27
2023-04-04T11:04:42.521Z,18.50
2023-04-04T11:07:32.978Z,19.47
2023-04-04T11:10:25.511Z,18.10
2023-04-04T11:13:16.732Z,17.70
2023-04-04T11:16:07.716Z,22.17
2023-04-04T11:19:00.793Z,17.90
2023-04-04T11:21:52.331Z,18.23
2023-04-04T11:24:45.080Z,17.90
2023-04-04T11:27:33.428Z,20.63
2023-04-04T11:30:21.849Z,18.23
2023-04-04T11:33:10.718Z,17.23
2023-04-04T11:36:08.630Z,17.47
2023-04-04T11:38:59.966Z,19.03
2023-04-04T11:41:51.238Z,17.67
2023-04-04T11:44:42.993Z,18.00
2023-04-04T11:47:32.131Z,20.87
2023-04-04T11:50:20.901Z,17.70
2023-04-04T11:53:10.310Z,16.80
2023-04-04T11:55:59.606Z,17.10
2023-04-04T11:58:56.070Z,15.70
2023-04-04T12:01:50.967Z,16.30
2023-04-04T12:04:42.839Z,18.93
2023-04-04T12:07:32.975Z,16.47
2023-04-04T12:10:22.966Z,18.30
2023-04-04T12:13:11.872Z,16.20
2023-04-04T12:16:01.937Z,18.40
2023-04-04T12:18:50.274Z,17.30
2023-04-04T12:21:38.976Z,16.03
2023-04-04T12:24:27.328Z,16.80
2023-04-04T12:27:16.011Z,17.37
2023-04-04T12:30:07.007Z,16.03
2023-04-04T12:32:57.103Z,17.60
2023-04-04T12:35:52.738Z,17.80
2023-04-04T12:39:00.035Z,15.90
2023-04-04T12:41:49.526Z,18.10
2023-04-04T12:44:39.457Z,15.90
2023-04-04T12:47:28.743Z,15.83
2023-04-04T12:50:24.352Z,16.80
2023-04-04T12:53:27.358Z,16.13
2023-04-04T12:56:16.757Z,15.73
2023-04-04T12:59:05.849Z,15.87
2023-04-04T13:01:54.386Z,15.40
2023-04-04T13:04:46.691Z,15.40
2023-04-04T13:07:43.387Z,17.17
2023-04-04T13:10:32.322Z,16.23
2023-04-04T13:13:32.821Z,16.20
2023-04-04T13:16:32.350Z,17.50
2023-04-04T13:19:21.494Z,16.10
2023-04-04T13:22:10.770Z,17.73
2023-04-04T13:25:00.496Z,16.53
2023-04-04T13:27:48.862Z,15.20
2023-04-04T13:30:37.225Z,16.00
2023-04-04T13:33:25.662Z,16.10
2023-04-04T13:36:14.215Z,15.90
2023-04-04T13:39:02.561Z,15.70
2023-04-04T13:41:52.511Z,14.80
2023-04-04T13:44:40.914Z,15.73
2023-04-04T13:47:29.327Z,16.33
2023-04-04T13:50:18.234Z,14.87
2023-04-04T13:53:06.680Z,17.60
2023-04-04T13:56:13.972Z,16.40
2023-04-04T13:59:04.699Z,15.03
2023-04-04T14:01:53.255Z,15.90
2023-04-04T14:04:41.785Z,16.20
2023-04-04T14:07:30.139Z,15.90
2023-04-04T14:10:18.799Z,15.63
2023-04-04T14:13:07.169Z,15.93
2023-04-04T14:15:56.922Z,18.53
2023-04-04T14:18:45.538Z,15.97
2023-04-04T14:21:33.867Z,15.50
2023-04-04T14:24:22.182Z,15.23
2023-04-04T14:27:10.508Z,16.00
2023-04-04T14:29:58.879Z,15.60
2023-04-04T14:32:49.712Z,16.00
2023-04-04T14:35:38.265Z,15.13
2023-04-04T14:38:26.741Z,15.50
2023-04-04T14:41:16.201Z,15.60
2023-04-04T14:44:04.582Z,15.60
2023-04-04T14:46:53.559Z,19.43
2023-04-04T14:49:43.940Z,16.93
2023-04-04T14:52:32.227Z,15.53
2023-04-04T14:55:20.700Z,16.53
2023-04-04T14:58:09.302Z,17.43
2023-04-04T15:00:58.030Z,16.43
2023-04-04T15:03:46.348Z,15.80
2023-04-04T15:06:38.132Z,16.00
2023-04-04T15:09:26.557Z,16.03
2023-04-04T15:12:14.826Z,16.20
2023-04-04T15:15:03.187Z,15.67
2023-04-04T15:17:52.049Z,15.83
2023-04-04T15:20:40.683Z,15.40
2023-04-04T15:23:31.267Z,15.83
2023-04-04T15:26:19.625Z,15.83
2023-04-04T15:29:08.056Z,15.70
2023-04-04T15:31:56.501Z,16.70
2023-04-04T15:34:44.806Z,16.17
2023-04-04T15:37:33.643Z,16.50
2023-04-04T15:40:23.640Z,15.80
2023-04-04T15:43:12.058Z,16.70
2023-04-04T15:46:00.508Z,17.47
2023-04-04T15:48:51.928Z,19.93
2023-04-04T15:51:42.985Z,16.17
2023-04-04T15:54:32.188Z,16.63
2023-04-04T15:57:21.918Z,16.70
2023-04-04T16:00:11.447Z,16.00
2023-04-04T16:03:00.021Z,16.87
2023-04-04T16:05:48.475Z,16.33
2023-04-04T16:08:36.889Z,16.80
2023-04-04T16:11:25.261Z,16.37
2023-04-04T16:14:14.958Z,18.40
2023-04-04T16:17:03.322Z,16.47
2023-04-04T16:19:51.686Z,15.57
2023-04-04T16:22:40.146Z,15.70
2023-04-04T16:25:28.676Z,17.10
2023-04-04T16:28:17.187Z,15.70
2023-04-04T16:31:06.941Z,15.43
2023-04-04T16:33:55.289Z,15.90
2023-04-04T16:36:43.658Z,17.20
2023-04-04T16:39:32.073Z,15.90
2023-04-04T16:42:20.439Z,15.57
2023-04-04T16:45:09.721Z,16.20
2023-04-04T16:47:59.462Z,15.87
2023-04-04T16:50:47.835Z,15.33
2023-04-04T16:53:37.282Z,15.17
2023-04-04T16:56:25.738Z,16.27
2023-04-04T16:59:16.042Z,15.80
2023-04-04T17:02:08.021Z,15.67
2023-04-04T17:04:57.769Z,15.30
2023-04-04T17:07:46.109Z,17.70
2023-04-04T17:10:34.699Z,16.23
2023-04-04T17:13:23.076Z,16.33
2023-04-04T17:16:11.512Z,15.10
2023-04-04T17:18:59.816Z,17.23
2023-04-04T17:21:49.556Z,17.57
2023-04-04T17:24:37.884Z,17.80
2023-04-04T17:27:26.507Z,16.17
2023-04-04T17:30:15.820Z,16.93
2023-04-04T17:33:04.889Z,16.07
2023-04-04T17:35:53.300Z,16.40
2023-04-04T17:38:43.084Z,18.10
2023-04-04T17:41:31.398Z,17.53
2023-04-04T17:44:21.072Z,16.00
2023-04-04T17:47:09.511Z,16.87
2023-04-04T17:49:58.198Z,18.40
2023-04-04T17:52:46.548Z,16.97
2023-04-04T17:55:36.766Z,16.73
2023-04-04T17:58:25.848Z,17.40
2023-04-04T18:01:14.209Z,17.50
2023-04-04T18:04:02.610Z,18.23
2023-04-04T18:06:52.306Z,20.03
2023-04-04T18:09:40.804Z,18.43
2023-04-04T18:12:30.790Z,20.50
2023-04-04T18:15:19.891Z,19.40
2023-04-04T18:18:08.437Z,19.80
2023-04-04T18:20:56.953Z,20.67
2023-04-04T18:23:45.483Z,21.80
2023-04-04T18:26:33.882Z,21.90
2023-04-04T18:29:24.982Z,20.93
2023-04-04T18:32:13.376Z,23.20
2023-04-04T18:35:01.923Z,20.67
2023-04-04T18:37:50.310Z,21.93
2023-04-04T18:40:39.241Z,23.53
2023-04-04T18:43:27.827Z,22.80
2023-04-04T18:46:17.917Z,21.43
2023-04-04T18:49:07.040Z,24.63
2023-04-04T18:51:55.529Z,21.87
2023-04-04T18:54:45.195Z,21.70
2023-04-04T18:57:34.602Z,22.73
2023-04-04T19:00:23.213Z,22.87
2023-04-04T19:03:13.513Z,23.87
2023-04-04T19:06:02.583Z,23.60
2023-04-04T19:08:51.271Z,23.83
2023-04-04T19:11:39.616Z,24.93
2023-04-04T19:14:28.103Z,24.20
2023-04-04T19:17:18.126Z,24.50
2023-04-04T19:20:09.460Z,25.53
2023-04-04T19:22:57.825Z,27.13
2023-04-04T19:25:46.193Z,26.60
2023-04-04T19:28:34.552Z,27.80
2023-04-04T19:31:24.152Z,28.10
2023-04-04T19:34:14.777Z,26.90
2023-04-04T19:37:04.789Z,27.70
2023-04-04T19:39:53.131Z,26.23
2023-04-04T19:42:42.845Z,28.33
2023-04-04T19:45:48.546Z,27.50
2023-04-04T19:48:44.772Z,27.90
2023-04-04T19:51:41.459Z,27.03
2023-04-04T19:54:34.312Z,27.43
2023-04-04T19:57:23.446Z,27.87
2023-04-04T20:00:13.716Z,28.10
2023-04-04T20:03:07.419Z,29.37
2023-04-04T20:05:59.421Z,26.83
2023-04-04T20:08:49.128Z,28.67
2023-04-04T20:11:38.871Z,28.23
2023-04-04T20:14:27.400Z,27.93
2023-04-04T20:17:18.964Z,29.50
2023-04-04T20:20:10.811Z,28.17
2023-04-04T20:22:59.206Z,28.17
2023-04-04T20:25:48.116Z,29.80
2023-04-04T20:28:38.024Z,30.50
2023-04-04T20:31:27.413Z,33.33
2023-04-04T20:34:33.947Z,30.40
2023-04-04T20:37:26.271Z,30.47
2023-04-04T20:40:37.210Z,30.13
2023-04-04T20:43:27.127Z,29.83
2023-04-04T20:46:15.752Z,29.60
2023-04-04T20:49:05.158Z,30.03
2023-04-04T20:51:53.467Z,32.07
2023-04-04T20:54:41.797Z,31.53
2023-04-04T20:57:30.114Z,29.13
2023-04-04T21:03:24.810Z,39.27
2023-04-04T21:06:14.892Z,34.57
2023-04-04T21:09:06.977Z,32.77
2023-04-04T21:11:55.459Z,30.90
2023-04-04T21:14:44.299Z,31.30
2023-04-04T21:17:32.800Z,30.57
2023-04-04T21:20:54.842Z,30.57
2023-04-04T21:23:52.485Z,31.70
2023-04-04T21:26:41.876Z,30.83
2023-04-04T21:29:30.326Z,29.57
2023-04-04T21:32:21.678Z,33.73
2023-04-04T21:35:10.783Z,29.70
2023-04-04T21:37:59.113Z,30.50
2023-04-04T21:40:48.945Z,29.00
2023-04-04T21:43:37.280Z,29.03
2023-04-04T21:46:26.847Z,30.53
2023-04-04T21:49:15.260Z,29.20
2023-04-04T21:52:03.630Z,29.83
2023-04-04T21:54:52.097Z,31.27
2023-04-04T21:57:41.890Z,32.50
2023-04-04T22:00:31.240Z,30.27
2023-04-04T22:03:19.587Z,29.40
2023-04-04T22:06:08.596Z,29.77
2023-04-04T22:08:58.100Z,29.80
2023-04-04T22:11:46.489Z,29.40
2023-04-04T22:14:42.831Z,30.30
2023-04-04T22:17:31.637Z,30.23
2023-04-04T22:20:19.983Z,30.43
2023-04-04T22:23:08.358Z,28.97
2023-04-04T22:25:56.702Z,29.70
2023-04-04T22:28:48.089Z,29.63
2023-04-04T22:31:38.497Z,29.50
2023-04-04T22:34:27.987Z,29.97
2023-04-04T22:37:41.333Z,28.80
2023-04-04T22:40:30.209Z,29.53
2023-04-04T22:43:18.552Z,30.20
2023-04-04T22:46:07.057Z,29.87
2023-04-04T22:49:05.962Z,30.10
2023-04-04T22:51:55.529Z,29.33
2023-04-04T22:54:44.151Z,29.80
2023-04-04T22:57:32.497Z,28.67
2023-04-04T23:00:20.935Z,29.80
2023-04-04T23:03:09.312Z,29.00
2023-04-04T23:05:59.077Z,30.80
2023-04-04T23:08:47.456Z,28.27
2023-04-04T23:11:35.804Z,29.77
2023-04-04T23:14:24.365Z,28.90
2023-04-04T23:17:12.736Z,30.53
2023-04-04T23:20:01.452Z,28.70
2023-04-04T23:22:51.817Z,29.40
2023-04-04T23:25:40.150Z,30.90
2023-04-04T23:28:30.521Z,29.63
2023-04-04T23:31:20.462Z,28.40
2023-04-04T23:34:08.953Z,29.70
2023-04-04T23:36:57.359Z,28.20
2023-04-04T23:39:47.506Z,31.07
2023-04-04T23:42:35.810Z,29.43
2023-04-04T23:45:24.707Z,29.27
2023-04-04T23:48:13.162Z,29.33
2023-04-04T23:51:03.854Z,29.70
2023-04-04T23:53:52.304Z,29.23
2023-04-04T23:56:42.077Z,29.40
2023-04-04T23:59:30.449Z,31.93
